sensor_id;sensor_type;location;lat;lon;timestamp;pressure;altitude;pressure_sealevel;temperature
68911;BMP180;55953;51.650;-0.522;2023-02-26T00:01:45;101364.80;;;3.02
68911;BMP180;55953;51.650;-0.522;2023-02-26T00:04:13;101364.40;;;3.00
68911;BMP180;55953;51.650;-0.522;2023-02-26T00:06:41;101369.40;;;3.00
68911;BMP180;55953;51.650;-0.522;2023-02-26T00:09:22;101367.40;;;3.00
68911;BMP180;55953;51.650;-0.522;2023-02-26T00:11:51;101374.00;;;3.00
68911;BMP180;55953;51.650;-0.522;2023-02-26T00:14:20;101379.00;;;3.00
68911;BMP180;55953;51.650;-0.522;2023-02-26T00:18:08;101382.80;;;2.96
68911;BMP180;55953;51.650;-0.522;2023-02-26T00:20:28;101378.40;;;2.96
68911;BMP180;55953;51.650;-0.522;2023-02-26T00:22:57;101386.60;;;2.90
68911;BMP180;55953;51.650;-0.522;2023-02-26T00:25:24;101384.40;;;2.90
68911;BMP180;55953;51.650;-0.522;2023-02-26T00:27:53;101383.60;;;2.90
68911;BMP180;55953;51.650;-0.522;2023-02-26T00:30:22;101382.00;;;2.90
68911;BMP180;55953;51.650;-0.522;2023-02-26T00:32:50;101385.20;;;2.86
68911;BMP180;55953;51.650;-0.522;2023-02-26T00:35:18;101385.00;;;2.80
68911;BMP180;55953;51.650;-0.522;2023-02-26T00:38:09;101382.40;;;2.80
68911;BMP180;55953;51.650;-0.522;2023-02-26T00:40:49;101383.00;;;2.80
68911;BMP180;55953;51.650;-0.522;2023-02-26T00:43:20;101390.60;;;2.80
68911;BMP180;55953;51.650;-0.522;2023-02-26T00:49:26;101389.40;;;2.80
68911;BMP180;55953;51.650;-0.522;2023-02-26T00:52:12;101389.40;;;2.80
68911;BMP180;55953;51.650;-0.522;2023-02-26T00:54:40;101389.00;;;2.74
68911;BMP180;55953;51.650;-0.522;2023-02-26T00:57:08;101385.40;;;2.74
68911;BMP180;55953;51.650;-0.522;2023-02-26T00:59:36;101380.20;;;2.70
68911;BMP180;55953;51.650;-0.522;2023-02-26T01:02:04;101381.20;;;2.70
68911;BMP180;55953;51.650;-0.522;2023-02-26T01:04:32;101380.00;;;2.70
68911;BMP180;55953;51.650;-0.522;2023-02-26T01:07:00;101383.60;;;2.70
68911;BMP180;55953;51.650;-0.522;2023-02-26T01:09:34;101391.80;;;2.70
68911;BMP180;55953;51.650;-0.522;2023-02-26T01:12:09;101390.60;;;2.70
68911;BMP180;55953;51.650;-0.522;2023-02-26T01:14:41;101399.60;;;2.70
68911;BMP180;55953;51.650;-0.522;2023-02-26T01:17:24;101396.40;;;2.70
68911;BMP180;55953;51.650;-0.522;2023-02-26T01:22:45;101404.40;;;2.70
68911;BMP180;55953;51.650;-0.522;2023-02-26T01:25:21;101404.20;;;2.68
68911;BMP180;55953;51.650;-0.522;2023-02-26T01:27:51;101407.60;;;2.70
68911;BMP180;55953;51.650;-0.522;2023-02-26T01:30:20;101410.20;;;2.70
68911;BMP180;55953;51.650;-0.522;2023-02-26T01:42:20;101410.40;;;2.70
68911;BMP180;55953;51.650;-0.522;2023-02-26T01:50:19;101415.80;;;2.62
68911;BMP180;55953;51.650;-0.522;2023-02-26T01:55:21;101418.00;;;2.70
68911;BMP180;55953;51.650;-0.522;2023-02-26T01:57:53;101410.40;;;2.70
68911;BMP180;55953;51.650;-0.522;2023-02-26T02:00:22;101410.60;;;2.70
68911;BMP180;55953;51.650;-0.522;2023-02-26T02:02:53;101412.20;;;2.70
68911;BMP180;55953;51.650;-0.522;2023-02-26T02:05:33;101412.20;;;2.70
68911;BMP180;55953;51.650;-0.522;2023-02-26T02:08:02;101408.60;;;2.70
68911;BMP180;55953;51.650;-0.522;2023-02-26T02:10:31;101407.00;;;2.70
68911;BMP180;55953;51.650;-0.522;2023-02-26T02:13:42;101416.60;;;2.76
68911;BMP180;55953;51.650;-0.522;2023-02-26T02:19:17;101409.20;;;2.78
68911;BMP180;55953;51.650;-0.522;2023-02-26T02:31:25;101428.00;;;2.70
68911;BMP180;55953;51.650;-0.522;2023-02-26T02:34:21;101429.60;;;2.72
68911;BMP180;55953;51.650;-0.522;2023-02-26T02:37:09;101427.60;;;2.80
68911;BMP180;55953;51.650;-0.522;2023-02-26T02:39:49;101437.60;;;2.90
68911;BMP180;55953;51.650;-0.522;2023-02-26T02:42:27;101441.00;;;2.92
68911;BMP180;55953;51.650;-0.522;2023-02-26T02:45:22;101441.20;;;3.00
68911;BMP180;55953;51.650;-0.522;2023-02-26T02:47:59;101445.20;;;3.00
68911;BMP180;55953;51.650;-0.522;2023-02-26T02:50:42;101438.60;;;3.00
68911;BMP180;55953;51.650;-0.522;2023-02-26T02:53:22;101439.80;;;3.00
68911;BMP180;55953;51.650;-0.522;2023-02-26T02:56:16;101442.40;;;3.00
68911;BMP180;55953;51.650;-0.522;2023-02-26T02:58:54;101443.00;;;3.04
68911;BMP180;55953;51.650;-0.522;2023-02-26T03:01:26;101448.00;;;3.10
68911;BMP180;55953;51.650;-0.522;2023-02-26T03:04:08;101447.20;;;3.10
68911;BMP180;55953;51.650;-0.522;2023-02-26T03:06:38;101447.80;;;3.16
68911;BMP180;55953;51.650;-0.522;2023-02-26T03:09:08;101442.40;;;3.20
68911;BMP180;55953;51.650;-0.522;2023-02-26T03:11:41;101440.80;;;3.20
68911;BMP180;55953;51.650;-0.522;2023-02-26T03:14:10;101447.00;;;3.20
68911;BMP180;55953;51.650;-0.522;2023-02-26T03:16:59;101444.20;;;3.12
68911;BMP180;55953;51.650;-0.522;2023-02-26T03:25:59;101442.00;;;3.00
68911;BMP180;55953;51.650;-0.522;2023-02-26T03:28:45;101444.20;;;3.00
68911;BMP180;55953;51.650;-0.522;2023-02-26T03:31:30;101448.60;;;2.90
68911;BMP180;55953;51.650;-0.522;2023-02-26T03:34:31;101442.40;;;2.90
68911;BMP180;55953;51.650;-0.522;2023-02-26T03:37:16;101452.60;;;2.90
68911;BMP180;55953;51.650;-0.522;2023-02-26T03:39:52;101450.40;;;2.90
68911;BMP180;55953;51.650;-0.522;2023-02-26T03:42:45;101457.40;;;2.90
68911;BMP180;55953;51.650;-0.522;2023-02-26T03:45:20;101449.80;;;2.88
68911;BMP180;55953;51.650;-0.522;2023-02-26T03:47:53;101447.40;;;2.90
68911;BMP180;55953;51.650;-0.522;2023-02-26T03:50:30;101453.20;;;2.90
68911;BMP180;55953;51.650;-0.522;2023-02-26T03:53:21;101453.00;;;2.90
68911;BMP180;55953;51.650;-0.522;2023-02-26T03:59:00;101455.00;;;2.80
68911;BMP180;55953;51.650;-0.522;2023-02-26T04:02:09;101457.20;;;2.80
68911;BMP180;55953;51.650;-0.522;2023-02-26T04:04:52;101471.60;;;2.80
68911;BMP180;55953;51.650;-0.522;2023-02-26T04:07:22;101474.20;;;2.80
68911;BMP180;55953;51.650;-0.522;2023-02-26T04:09:51;101468.40;;;2.78
68911;BMP180;55953;51.650;-0.522;2023-02-26T04:12:26;101478.80;;;2.70
68911;BMP180;55953;51.650;-0.522;2023-02-26T04:14:56;101485.20;;;2.70
68911;BMP180;55953;51.650;-0.522;2023-02-26T04:17:24;101484.40;;;2.70
68911;BMP180;55953;51.650;-0.522;2023-02-26T04:19:52;101487.60;;;2.70
68911;BMP180;55953;51.650;-0.522;2023-02-26T04:22:20;101488.20;;;2.60
68911;BMP180;55953;51.650;-0.522;2023-02-26T04:24:48;101491.60;;;2.60
68911;BMP180;55953;51.650;-0.522;2023-02-26T04:27:17;101490.00;;;2.60
68911;BMP180;55953;51.650;-0.522;2023-02-26T04:29:45;101495.40;;;2.60
68911;BMP180;55953;51.650;-0.522;2023-02-26T04:32:12;101494.20;;;2.60
68911;BMP180;55953;51.650;-0.522;2023-02-26T04:34:41;101492.60;;;2.58
68911;BMP180;55953;51.650;-0.522;2023-02-26T04:37:09;101506.60;;;2.60
68911;BMP180;55953;51.650;-0.522;2023-02-26T04:39:37;101502.00;;;2.54
68911;BMP180;55953;51.650;-0.522;2023-02-26T04:42:05;101503.00;;;2.50
68911;BMP180;55953;51.650;-0.522;2023-02-26T04:44:34;101513.80;;;2.56
68911;BMP180;55953;51.650;-0.522;2023-02-26T04:47:02;101518.20;;;2.52
68911;BMP180;55953;51.650;-0.522;2023-02-26T04:49:31;101511.80;;;2.50
68911;BMP180;55953;51.650;-0.522;2023-02-26T04:51:58;101522.20;;;2.52
68911;BMP180;55953;51.650;-0.522;2023-02-26T04:54:27;101516.00;;;2.60
68911;BMP180;55953;51.650;-0.522;2023-02-26T04:56:55;101518.60;;;2.60
68911;BMP180;55953;51.650;-0.522;2023-02-26T04:59:23;101520.60;;;2.60
68911;BMP180;55953;51.650;-0.522;2023-02-26T05:01:51;101518.40;;;2.60
68911;BMP180;55953;51.650;-0.522;2023-02-26T05:04:19;101511.00;;;2.68
68911;BMP180;55953;51.650;-0.522;2023-02-26T05:06:50;101521.00;;;2.70
68911;BMP180;55953;51.650;-0.522;2023-02-26T05:09:19;101518.60;;;2.70
68911;BMP180;55953;51.650;-0.522;2023-02-26T05:11:48;101518.80;;;2.70
68911;BMP180;55953;51.650;-0.522;2023-02-26T05:14:16;101519.60;;;2.70
68911;BMP180;55953;51.650;-0.522;2023-02-26T05:16:44;101522.80;;;2.70
68911;BMP180;55953;51.650;-0.522;2023-02-26T05:19:12;101521.40;;;2.70
68911;BMP180;55953;51.650;-0.522;2023-02-26T05:21:40;101520.60;;;2.70
68911;BMP180;55953;51.650;-0.522;2023-02-26T05:24:08;101523.00;;;2.70
68911;BMP180;55953;51.650;-0.522;2023-02-26T05:26:36;101532.40;;;2.64
68911;BMP180;55953;51.650;-0.522;2023-02-26T05:29:04;101530.40;;;2.60
68911;BMP180;55953;51.650;-0.522;2023-02-26T05:31:33;101532.00;;;2.60
68911;BMP180;55953;51.650;-0.522;2023-02-26T05:34:01;101532.40;;;2.60
68911;BMP180;55953;51.650;-0.522;2023-02-26T05:36:29;101536.60;;;2.60
68911;BMP180;55953;51.650;-0.522;2023-02-26T05:38:57;101540.60;;;2.60
68911;BMP180;55953;51.650;-0.522;2023-02-26T05:41:25;101545.40;;;2.58
68911;BMP180;55953;51.650;-0.522;2023-02-26T05:43:52;101536.60;;;2.58
68911;BMP180;55953;51.650;-0.522;2023-02-26T05:46:20;101549.80;;;2.60
68911;BMP180;55953;51.650;-0.522;2023-02-26T05:48:48;101550.00;;;2.70
68911;BMP180;55953;51.650;-0.522;2023-02-26T05:51:16;101554.80;;;2.70
68911;BMP180;55953;51.650;-0.522;2023-02-26T05:53:44;101558.20;;;2.70
68911;BMP180;55953;51.650;-0.522;2023-02-26T05:56:12;101547.00;;;2.70
68911;BMP180;55953;51.650;-0.522;2023-02-26T05:58:42;101550.80;;;2.70
68911;BMP180;55953;51.650;-0.522;2023-02-26T06:01:09;101556.80;;;2.70
68911;BMP180;55953;51.650;-0.522;2023-02-26T06:03:37;101566.40;;;2.70
68911;BMP180;55953;51.650;-0.522;2023-02-26T06:06:12;101569.60;;;2.70
68911;BMP180;55953;51.650;-0.522;2023-02-26T06:08:46;101570.40;;;2.68
68911;BMP180;55953;51.650;-0.522;2023-02-26T06:11:14;101575.00;;;2.62
68911;BMP180;55953;51.650;-0.522;2023-02-26T06:13:42;101577.20;;;2.70
68911;BMP180;55953;51.650;-0.522;2023-02-26T06:16:09;101578.20;;;2.66
68911;BMP180;55953;51.650;-0.522;2023-02-26T06:18:37;101579.00;;;2.60
68911;BMP180;55953;51.650;-0.522;2023-02-26T06:21:05;101578.40;;;2.60
68911;BMP180;55953;51.650;-0.522;2023-02-26T06:23:33;101579.40;;;2.60
68911;BMP180;55953;51.650;-0.522;2023-02-26T06:26:01;101583.20;;;2.66
68911;BMP180;55953;51.650;-0.522;2023-02-26T06:28:29;101591.80;;;2.64
68911;BMP180;55953;51.650;-0.522;2023-02-26T06:30:57;101598.00;;;2.60
68911;BMP180;55953;51.650;-0.522;2023-02-26T06:33:25;101596.40;;;2.66
68911;BMP180;55953;51.650;-0.522;2023-02-26T06:35:53;101597.40;;;2.66
68911;BMP180;55953;51.650;-0.522;2023-02-26T06:38:22;101601.00;;;2.60
68911;BMP180;55953;51.650;-0.522;2023-02-26T06:40:50;101603.00;;;2.60
68911;BMP180;55953;51.650;-0.522;2023-02-26T06:43:18;101609.80;;;2.60
68911;BMP180;55953;51.650;-0.522;2023-02-26T06:45:46;101616.20;;;2.60
68911;BMP180;55953;51.650;-0.522;2023-02-26T06:48:15;101614.80;;;2.60
68911;BMP180;55953;51.650;-0.522;2023-02-26T06:50:43;101610.40;;;2.60
68911;BMP180;55953;51.650;-0.522;2023-02-26T06:53:11;101616.80;;;2.60
68911;BMP180;55953;51.650;-0.522;2023-02-26T06:55:43;101623.00;;;2.60
68911;BMP180;55953;51.650;-0.522;2023-02-26T06:58:12;101622.20;;;2.60
68911;BMP180;55953;51.650;-0.522;2023-02-26T07:00:40;101626.60;;;2.60
68911;BMP180;55953;51.650;-0.522;2023-02-26T07:03:13;101636.80;;;2.60
68911;BMP180;55953;51.650;-0.522;2023-02-26T07:05:44;101638.60;;;2.60
68911;BMP180;55953;51.650;-0.522;2023-02-26T07:08:12;101636.20;;;2.60
68911;BMP180;55953;51.650;-0.522;2023-02-26T07:10:41;101631.80;;;2.60
68911;BMP180;55953;51.650;-0.522;2023-02-26T07:13:09;101635.80;;;2.60
68911;BMP180;55953;51.650;-0.522;2023-02-26T07:15:37;101646.20;;;2.60
68911;BMP180;55953;51.650;-0.522;2023-02-26T07:18:04;101646.40;;;2.60
68911;BMP180;55953;51.650;-0.522;2023-02-26T07:20:33;101658.20;;;2.60
68911;BMP180;55953;51.650;-0.522;2023-02-26T07:23:01;101660.80;;;2.60
68911;BMP180;55953;51.650;-0.522;2023-02-26T07:25:29;101667.60;;;2.64
68911;BMP180;55953;51.650;-0.522;2023-02-26T07:27:57;101673.80;;;2.62
68911;BMP180;55953;51.650;-0.522;2023-02-26T07:30:26;101681.40;;;2.70
68911;BMP180;55953;51.650;-0.522;2023-02-26T07:32:54;101679.40;;;2.70
68911;BMP180;55953;51.650;-0.522;2023-02-26T07:35:23;101684.00;;;2.76
68911;BMP180;55953;51.650;-0.522;2023-02-26T07:37:51;101685.60;;;2.80
68911;BMP180;55953;51.650;-0.522;2023-02-26T07:40:19;101686.00;;;2.90
68911;BMP180;55953;51.650;-0.522;2023-02-26T07:42:47;101694.00;;;2.96
68911;BMP180;55953;51.650;-0.522;2023-02-26T07:45:15;101692.20;;;3.00
68911;BMP180;55953;51.650;-0.522;2023-02-26T07:47:51;101687.40;;;3.00
68911;BMP180;55953;51.650;-0.522;2023-02-26T07:50:20;101680.20;;;3.00
68911;BMP180;55953;51.650;-0.522;2023-02-26T07:52:48;101690.60;;;3.10
68911;BMP180;55953;51.650;-0.522;2023-02-26T07:55:15;101684.60;;;3.10
68911;BMP180;55953;51.650;-0.522;2023-02-26T07:57:43;101690.00;;;3.20
68911;BMP180;55953;51.650;-0.522;2023-02-26T08:00:13;101692.00;;;3.20
68911;BMP180;55953;51.650;-0.522;2023-02-26T08:02:41;101684.40;;;3.30
68911;BMP180;55953;51.650;-0.522;2023-02-26T08:05:09;101685.80;;;3.30
68911;BMP180;55953;51.650;-0.522;2023-02-26T08:07:37;101690.80;;;3.30
68911;BMP180;55953;51.650;-0.522;2023-02-26T08:10:05;101701.40;;;3.30
68911;BMP180;55953;51.650;-0.522;2023-02-26T08:12:33;101708.00;;;3.30
68911;BMP180;55953;51.650;-0.522;2023-02-26T08:15:04;101703.40;;;3.30
68911;BMP180;55953;51.650;-0.522;2023-02-26T08:17:32;101709.20;;;3.32
68911;BMP180;55953;51.650;-0.522;2023-02-26T08:20:01;101723.80;;;3.30
68911;BMP180;55953;51.650;-0.522;2023-02-26T08:22:29;101725.80;;;3.30
68911;BMP180;55953;51.650;-0.522;2023-02-26T08:24:57;101725.60;;;3.30
68911;BMP180;55953;51.650;-0.522;2023-02-26T08:27:25;101737.40;;;3.40
68911;BMP180;55953;51.650;-0.522;2023-02-26T08:29:53;101735.20;;;3.42
68911;BMP180;55953;51.650;-0.522;2023-02-26T08:32:21;101737.80;;;3.44
68911;BMP180;55953;51.650;-0.522;2023-02-26T08:34:50;101732.00;;;3.50
68911;BMP180;55953;51.650;-0.522;2023-02-26T08:37:18;101736.60;;;3.60
68911;BMP180;55953;51.650;-0.522;2023-02-26T08:39:49;101744.00;;;3.60
68911;BMP180;55953;51.650;-0.522;2023-02-26T08:42:18;101738.20;;;3.68
68911;BMP180;55953;51.650;-0.522;2023-02-26T08:44:47;101750.20;;;3.70
68911;BMP180;55953;51.650;-0.522;2023-02-26T08:47:14;101751.80;;;3.70
68911;BMP180;55953;51.650;-0.522;2023-02-26T08:49:54;101757.20;;;3.80
68911;BMP180;55953;51.650;-0.522;2023-02-26T08:52:22;101763.00;;;3.80
68911;BMP180;55953;51.650;-0.522;2023-02-26T08:54:51;101763.40;;;3.80
68911;BMP180;55953;51.650;-0.522;2023-02-26T08:57:19;101761.00;;;3.98
68911;BMP180;55953;51.650;-0.522;2023-02-26T08:59:47;101759.60;;;4.00
68911;BMP180;55953;51.650;-0.522;2023-02-26T09:02:15;101759.60;;;4.12
68911;BMP180;55953;51.650;-0.522;2023-02-26T09:04:43;101765.20;;;4.22
68911;BMP180;55953;51.650;-0.522;2023-02-26T09:07:11;101767.00;;;4.30
68911;BMP180;55953;51.650;-0.522;2023-02-26T09:09:39;101765.40;;;4.38
68911;BMP180;55953;51.650;-0.522;2023-02-26T09:12:06;101777.00;;;4.40
68911;BMP180;55953;51.650;-0.522;2023-02-26T09:14:34;101778.20;;;4.50
68911;BMP180;55953;51.650;-0.522;2023-02-26T09:17:02;101772.20;;;4.60
68911;BMP180;55953;51.650;-0.522;2023-02-26T09:19:30;101777.20;;;4.72
68911;BMP180;55953;51.650;-0.522;2023-02-26T09:21:58;101777.60;;;4.94
68911;BMP180;55953;51.650;-0.522;2023-02-26T09:24:26;101783.40;;;5.06
68911;BMP180;55953;51.650;-0.522;2023-02-26T09:26:54;101788.00;;;5.20
68911;BMP180;55953;51.650;-0.522;2023-02-26T09:29:22;101782.00;;;5.20
68911;BMP180;55953;51.650;-0.522;2023-02-26T09:31:50;101792.80;;;5.38
68911;BMP180;55953;51.650;-0.522;2023-02-26T09:34:17;101791.80;;;5.50
68911;BMP180;55953;51.650;-0.522;2023-02-26T09:36:47;101793.20;;;5.68
68911;BMP180;55953;51.650;-0.522;2023-02-26T09:39:15;101795.20;;;5.72
68911;BMP180;55953;51.650;-0.522;2023-02-26T09:41:52;101795.80;;;5.94
68911;BMP180;55953;51.650;-0.522;2023-02-26T09:44:25;101796.60;;;6.00
68911;BMP180;55953;51.650;-0.522;2023-02-26T09:47:04;101798.00;;;6.04
68911;BMP180;55953;51.650;-0.522;2023-02-26T09:50:10;101794.00;;;6.16
68911;BMP180;55953;51.650;-0.522;2023-02-26T09:53:16;101793.80;;;6.10
68911;BMP180;55953;51.650;-0.522;2023-02-26T09:55:48;101804.20;;;6.10
68911;BMP180;55953;51.650;-0.522;2023-02-26T09:58:28;101806.20;;;6.08
68911;BMP180;55953;51.650;-0.522;2023-02-26T10:01:30;101805.60;;;6.20
68911;BMP180;55953;51.650;-0.522;2023-02-26T10:04:25;101804.20;;;6.20
68911;BMP180;55953;51.650;-0.522;2023-02-26T10:12:46;101820.40;;;6.26
68911;BMP180;55953;51.650;-0.522;2023-02-26T10:15:29;101823.80;;;6.30
68911;BMP180;55953;51.650;-0.522;2023-02-26T10:18:13;101829.60;;;6.40
68911;BMP180;55953;51.650;-0.522;2023-02-26T10:21:06;101831.80;;;6.40
68911;BMP180;55953;51.650;-0.522;2023-02-26T10:23:49;101834.80;;;6.50
68911;BMP180;55953;51.650;-0.522;2023-02-26T10:26:26;101838.60;;;6.60
68911;BMP180;55953;51.650;-0.522;2023-02-26T10:37:42;101834.40;;;7.10
68911;BMP180;55953;51.650;-0.522;2023-02-26T10:40:39;101852.20;;;7.30
68911;BMP180;55953;51.650;-0.522;2023-02-26T10:43:27;101860.80;;;7.30
68911;BMP180;55953;51.650;-0.522;2023-02-26T10:46:54;101862.20;;;7.32
68911;BMP180;55953;51.650;-0.522;2023-02-26T10:49:52;101863.20;;;7.40
68911;BMP180;55953;51.650;-0.522;2023-02-26T10:52:26;101858.20;;;7.42
68911;BMP180;55953;51.650;-0.522;2023-02-26T10:55:42;101860.60;;;7.60
68911;BMP180;55953;51.650;-0.522;2023-02-26T10:58:17;101862.40;;;7.80
68911;BMP180;55953;51.650;-0.522;2023-02-26T11:00:49;101869.40;;;7.84
68911;BMP180;55953;51.650;-0.522;2023-02-26T11:03:39;101864.80;;;7.80
68911;BMP180;55953;51.650;-0.522;2023-02-26T11:06:21;101869.40;;;7.90
68911;BMP180;55953;51.650;-0.522;2023-02-26T11:08:54;101872.20;;;8.12
68911;BMP180;55953;51.650;-0.522;2023-02-26T11:12:00;101871.60;;;8.30
68911;BMP180;55953;51.650;-0.522;2023-02-26T11:14:33;101874.00;;;8.34
68911;BMP180;55953;51.650;-0.522;2023-02-26T11:17:09;101876.00;;;8.30
68911;BMP180;55953;51.650;-0.522;2023-02-26T11:19:43;101880.20;;;8.20
68911;BMP180;55953;51.650;-0.522;2023-02-26T11:22:15;101881.20;;;8.20
68911;BMP180;55953;51.650;-0.522;2023-02-26T11:24:49;101885.40;;;8.30
68911;BMP180;55953;51.650;-0.522;2023-02-26T11:27:38;101881.80;;;8.30
68911;BMP180;55953;51.650;-0.522;2023-02-26T11:30:16;101886.20;;;8.40
68911;BMP180;55953;51.650;-0.522;2023-02-26T11:32:50;101886.20;;;8.50
68911;BMP180;55953;51.650;-0.522;2023-02-26T11:35:23;101894.80;;;8.60
68911;BMP180;55953;51.650;-0.522;2023-02-26T11:37:58;101890.00;;;8.60
68911;BMP180;55953;51.650;-0.522;2023-02-26T11:40:37;101898.00;;;8.50
68911;BMP180;55953;51.650;-0.522;2023-02-26T11:43:11;101895.00;;;8.50
68911;BMP180;55953;51.650;-0.522;2023-02-26T11:45:44;101894.20;;;8.50
68911;BMP180;55953;51.650;-0.522;2023-02-26T11:48:22;101894.80;;;8.50
68911;BMP180;55953;51.650;-0.522;2023-02-26T11:50:57;101896.00;;;8.28
68911;BMP180;55953;51.650;-0.522;2023-02-26T11:53:33;101898.80;;;8.40
68911;BMP180;55953;51.650;-0.522;2023-02-26T11:56:12;101900.00;;;8.50
68911;BMP180;55953;51.650;-0.522;2023-02-26T11:58:44;101897.80;;;8.70
68911;BMP180;55953;51.650;-0.522;2023-02-26T12:01:15;101897.00;;;9.00
68911;BMP180;55953;51.650;-0.522;2023-02-26T12:03:47;101896.20;;;9.20
68911;BMP180;55953;51.650;-0.522;2023-02-26T12:06:21;101906.80;;;9.50
68911;BMP180;55953;51.650;-0.522;2023-02-26T12:08:51;101892.80;;;9.70
68911;BMP180;55953;51.650;-0.522;2023-02-26T12:17:42;101907.20;;;9.46
68911;BMP180;55953;51.650;-0.522;2023-02-26T12:20:26;101912.00;;;9.48
68911;BMP180;55953;51.650;-0.522;2023-02-26T12:39:45;101919.80;;;9.90
68911;BMP180;55953;51.650;-0.522;2023-02-26T12:42:54;101932.20;;;9.90
68911;BMP180;55953;51.650;-0.522;2023-02-26T12:46:15;101932.00;;;9.78
68911;BMP180;55953;51.650;-0.522;2023-02-26T12:55:21;101939.60;;;9.50
68911;BMP180;55953;51.650;-0.522;2023-02-26T12:58:01;101936.20;;;9.30
68911;BMP180;55953;51.650;-0.522;2023-02-26T13:12:44;101955.20;;;8.90
68911;BMP180;55953;51.650;-0.522;2023-02-26T13:15:58;101953.60;;;8.70
68911;BMP180;55953;51.650;-0.522;2023-02-26T13:21:12;101949.20;;;8.90
68911;BMP180;55953;51.650;-0.522;2023-02-26T13:26:22;101948.40;;;9.00
68911;BMP180;55953;51.650;-0.522;2023-02-26T13:29:04;101943.00;;;9.02
68911;BMP180;55953;51.650;-0.522;2023-02-26T13:34:38;101945.40;;;8.90
68911;BMP180;55953;51.650;-0.522;2023-02-26T13:37:33;101952.00;;;8.90
68911;BMP180;55953;51.650;-0.522;2023-02-26T13:53:54;101943.80;;;9.14
68911;BMP180;55953;51.650;-0.522;2023-02-26T14:06:56;101932.80;;;9.38
68911;BMP180;55953;51.650;-0.522;2023-02-26T14:12:42;101929.20;;;9.30
68911;BMP180;55953;51.650;-0.522;2023-02-26T14:15:28;101932.80;;;9.30
68911;BMP180;55953;51.650;-0.522;2023-02-26T14:18:10;101928.80;;;9.40
68911;BMP180;55953;51.650;-0.522;2023-02-26T14:20:45;101936.40;;;9.20
68911;BMP180;55953;51.650;-0.522;2023-02-26T14:23:40;101948.60;;;8.94
68911;BMP180;55953;51.650;-0.522;2023-02-26T14:26:16;101951.60;;;8.90
68911;BMP180;55953;51.650;-0.522;2023-02-26T14:31:59;101952.40;;;8.90
68911;BMP180;55953;51.650;-0.522;2023-02-26T14:34:45;101955.20;;;8.80
68911;BMP180;55953;51.650;-0.522;2023-02-26T14:37:19;101953.00;;;8.90
68911;BMP180;55953;51.650;-0.522;2023-02-26T14:42:49;101949.60;;;8.88
68911;BMP180;55953;51.650;-0.522;2023-02-26T14:45:35;101950.00;;;9.00
68911;BMP180;55953;51.650;-0.522;2023-02-26T14:48:12;101952.20;;;9.00
68911;BMP180;55953;51.650;-0.522;2023-02-26T14:54:17;101945.40;;;8.80
68911;BMP180;55953;51.650;-0.522;2023-02-26T15:00:20;101955.20;;;8.40
68911;BMP180;55953;51.650;-0.522;2023-02-26T15:06:49;101957.20;;;8.40
68911;BMP180;55953;51.650;-0.522;2023-02-26T15:09:41;101957.40;;;8.40
68911;BMP180;55953;51.650;-0.522;2023-02-26T15:24:03;101954.00;;;8.50
68911;BMP180;55953;51.650;-0.522;2023-02-26T15:26:34;101957.80;;;8.40
68911;BMP180;55953;51.650;-0.522;2023-02-26T15:29:09;101965.00;;;8.50
68911;BMP180;55953;51.650;-0.522;2023-02-26T15:31:53;101966.00;;;8.56
68911;BMP180;55953;51.650;-0.522;2023-02-26T15:34:23;101969.80;;;8.60
68911;BMP180;55953;51.650;-0.522;2023-02-26T15:36:52;101964.40;;;8.66
68911;BMP180;55953;51.650;-0.522;2023-02-26T15:39:23;101966.20;;;8.70
68911;BMP180;55953;51.650;-0.522;2023-02-26T15:41:54;101972.60;;;8.80
68911;BMP180;55953;51.650;-0.522;2023-02-26T15:44:31;101972.60;;;8.88
68911;BMP180;55953;51.650;-0.522;2023-02-26T15:47:02;101974.40;;;8.90
68911;BMP180;55953;51.650;-0.522;2023-02-26T15:49:45;101976.80;;;8.90
68911;BMP180;55953;51.650;-0.522;2023-02-26T15:52:21;101979.20;;;8.72
68911;BMP180;55953;51.650;-0.522;2023-02-26T15:54:58;101984.20;;;8.60
68911;BMP180;55953;51.650;-0.522;2023-02-26T15:57:27;101980.80;;;8.40
68911;BMP180;55953;51.650;-0.522;2023-02-26T16:00:08;101982.40;;;8.30
68911;BMP180;55953;51.650;-0.522;2023-02-26T16:02:40;101980.20;;;8.10
68911;BMP180;55953;51.650;-0.522;2023-02-26T16:05:12;101975.80;;;8.12
68911;BMP180;55953;51.650;-0.522;2023-02-26T16:07:41;101971.00;;;8.20
68911;BMP180;55953;51.650;-0.522;2023-02-26T16:10:32;101976.40;;;8.30
68911;BMP180;55953;51.650;-0.522;2023-02-26T16:13:01;101978.00;;;8.36
68911;BMP180;55953;51.650;-0.522;2023-02-26T16:15:47;101981.00;;;8.30
68911;BMP180;55953;51.650;-0.522;2023-02-26T16:18:22;101984.40;;;8.30
68911;BMP180;55953;51.650;-0.522;2023-02-26T16:20:55;101986.20;;;8.22
68911;BMP180;55953;51.650;-0.522;2023-02-26T16:23:40;101984.60;;;8.20
68911;BMP180;55953;51.650;-0.522;2023-02-26T16:26:21;101986.60;;;8.12
68911;BMP180;55953;51.650;-0.522;2023-02-26T16:29:01;101987.60;;;8.00
68911;BMP180;55953;51.650;-0.522;2023-02-26T16:31:31;101991.40;;;7.90
68911;BMP180;55953;51.650;-0.522;2023-02-26T16:34:29;101991.80;;;7.90
68911;BMP180;55953;51.650;-0.522;2023-02-26T16:37:26;101993.20;;;7.80
68911;BMP180;55953;51.650;-0.522;2023-02-26T16:40:17;101992.60;;;7.70
68911;BMP180;55953;51.650;-0.522;2023-02-26T16:48:13;101992.80;;;7.50
68911;BMP180;55953;51.650;-0.522;2023-02-26T16:50:42;101990.40;;;7.50
68911;BMP180;55953;51.650;-0.522;2023-02-26T16:53:18;101992.40;;;7.50
68911;BMP180;55953;51.650;-0.522;2023-02-26T16:55:52;101997.40;;;7.40
68911;BMP180;55953;51.650;-0.522;2023-02-26T16:58:22;101999.60;;;7.36
68911;BMP180;55953;51.650;-0.522;2023-02-26T17:01:06;102006.20;;;7.30
68911;BMP180;55953;51.650;-0.522;2023-02-26T17:03:35;102007.80;;;7.20
68911;BMP180;55953;51.650;-0.522;2023-02-26T17:06:10;102005.80;;;7.10
68911;BMP180;55953;51.650;-0.522;2023-02-26T17:08:50;102009.20;;;7.00
68911;BMP180;55953;51.650;-0.522;2023-02-26T17:11:29;102017.00;;;6.90
68911;BMP180;55953;51.650;-0.522;2023-02-26T17:14:15;102008.40;;;6.80
68911;BMP180;55953;51.650;-0.522;2023-02-26T17:16:50;102011.00;;;6.70
68911;BMP180;55953;51.650;-0.522;2023-02-26T17:19:18;102018.80;;;6.56
68911;BMP180;55953;51.650;-0.522;2023-02-26T17:21:53;102020.80;;;6.50
68911;BMP180;55953;51.650;-0.522;2023-02-26T17:24:44;102026.20;;;6.40
68911;BMP180;55953;51.650;-0.522;2023-02-26T17:27:26;102030.80;;;6.30
68911;BMP180;55953;51.650;-0.522;2023-02-26T17:29:56;102024.60;;;6.20
68911;BMP180;55953;51.650;-0.522;2023-02-26T17:32:26;102031.80;;;6.10